createdAt,value
2016-05-09T00:00:15.403Z,0
2016-05-09T00:01:15.562Z,0
2016-05-09T00:02:15.535Z,0
2016-05-09T00:03:15.381Z,0
2016-05-09T00:04:15.524Z,0
2016-05-09T00:05:15.526Z,0
2016-05-09T00:06:15.498Z,0
2016-05-09T00:07:15.485Z,0
2016-05-09T00:08:15.473Z,0
2016-05-09T00:09:15.334Z,0
2016-05-09T00:10:15.462Z,0
2016-05-09T00:11:15.448Z,0
2016-05-09T00:12:15.436Z,0
2016-05-09T00:13:15.423Z,0
2016-05-09T00:14:15.270Z,0
2016-05-09T00:15:15.256Z,0
2016-05-09T00:16:15.400Z,0
2016-05-09T00:17:15.386Z,0
2016-05-09T00:18:15.374Z,0
2016-05-09T00:19:15.361Z,0
2016-05-09T00:20:15.348Z,0
2016-05-09T00:21:15.351Z,0
2016-05-09T00:22:15.338Z,0
2016-05-09T00:23:15.325Z,0
2016-05-09T00:24:15.327Z,0
2016-05-09T00:25:15.299Z,0
2016-05-09T00:26:15.285Z,0
2016-05-09T00:27:15.274Z,0
2016-05-09T00:28:15.104Z,0
2016-05-09T00:29:15.294Z,0
2016-05-09T00:30:15.250Z,0
2016-05-09T00:31:15.081Z,0
2016-05-09T00:32:15.224Z,0
2016-05-09T00:33:15.212Z,0
2016-05-09T00:34:15.042Z,0
2016-05-09T00:35:15.185Z,0
2016-05-09T00:36:15.173Z,0
2016-05-09T00:37:15.206Z,0
2016-05-09T00:38:15.162Z,0
2016-05-09T00:39:15.149Z,0
2016-05-09T00:40:14.981Z,0
2016-05-09T00:41:14.967Z,0
2016-05-09T00:42:15.111Z,0
2016-05-09T00:43:15.114Z,0
2016-05-09T00:44:15.007Z,0
2016-05-09T00:45:15.086Z,0
2016-05-09T00:46:15.090Z,0
2016-05-09T00:47:15.061Z,0
2016-05-09T00:48:15.048Z,0
2016-05-09T00:49:14.879Z,0
2016-05-09T00:50:15.039Z,0
2016-05-09T00:51:15.025Z,0
2016-05-09T00:52:15.013Z,0
2016-05-09T00:53:14.843Z,0
2016-05-09T00:54:14.986Z,0
2016-05-09T00:55:14.974Z,0
2016-05-09T00:56:14.960Z,0
2016-05-09T00:57:14.947Z,0
2016-05-09T00:58:14.622Z,0
2016-05-09T00:59:15.344Z,0
2016-05-09T01:00:14.924Z,0
2016-05-09T01:01:14.943Z,0
2016-05-09T01:02:14.758Z,0
2016-05-09T01:03:14.885Z,0
2016-05-09T01:04:14.888Z,0
2016-05-09T01:05:14.876Z,0
2016-05-09T01:06:14.878Z,0
2016-05-09T01:07:14.834Z,0
2016-05-09T01:08:14.836Z,0
2016-05-09T01:09:14.824Z,0
2016-05-09T01:10:14.812Z,0
2016-05-09T01:11:14.814Z,0
2016-05-09T01:12:14.800Z,0
2016-05-09T01:13:14.819Z,0
2016-05-09T01:14:14.883Z,0
2016-05-09T01:15:14.762Z,0
2016-05-09T01:16:14.749Z,0
2016-05-09T01:17:14.736Z,0
2016-05-09T01:18:14.723Z,0
2016-05-09T01:19:14.725Z,0
2016-05-09T01:20:14.697Z,0
2016-05-09T01:21:14.683Z,0
2016-05-09T01:22:14.531Z,0
2016-05-09T01:23:14.674Z,0
2016-05-09T01:24:14.661Z,0
2016-05-09T01:25:14.632Z,0
2016-05-09T01:26:14.635Z,0
2016-05-09T01:27:14.622Z,0
2016-05-09T01:28:14.610Z,0
2016-05-09T01:29:16.002Z,0
2016-05-09T01:30:14.583Z,0
2016-05-09T01:31:14.570Z,0
2016-05-09T01:32:14.401Z,0
2016-05-09T01:33:14.560Z,0
2016-05-09T01:34:14.391Z,0
2016-05-09T01:35:14.378Z,0
2016-05-09T01:36:14.521Z,0
2016-05-09T01:37:14.351Z,0
2016-05-09T01:38:14.496Z,0
2016-05-09T01:39:14.483Z,0
2016-05-09T01:40:14.470Z,0
2016-05-09T01:41:14.473Z,0
2016-05-09T01:42:14.459Z,0
2016-05-09T01:43:14.633Z,0
2016-05-09T01:44:14.434Z,0
2016-05-09T01:45:14.123Z,0
2016-05-09T01:46:14.251Z,0
2016-05-09T01:47:14.395Z,0
2016-05-09T01:48:14.397Z,0
2016-05-09T01:49:14.384Z,0
2016-05-09T01:50:14.371Z,0
2016-05-09T01:51:14.359Z,0
2016-05-09T01:52:14.345Z,0
2016-05-09T01:53:14.192Z,0
2016-05-09T01:54:14.319Z,0
2016-05-09T01:55:14.307Z,0
2016-05-09T01:56:14.310Z,0
2016-05-09T01:57:14.297Z,0
2016-05-09T01:58:14.283Z,0
2016-05-09T01:59:14.661Z,0
2016-05-09T02:00:14.273Z,0
2016-05-09T02:01:14.260Z,0
2016-05-09T02:02:14.076Z,0
2016-05-09T02:03:14.219Z,0
2016-05-09T02:04:14.222Z,0
2016-05-09T02:05:14.052Z,0
2016-05-09T02:06:14.195Z,0
2016-05-09T02:07:14.182Z,0
2016-05-09T02:08:13.999Z,0
2016-05-09T02:09:14.141Z,0
2016-05-09T02:10:14.129Z,0
2016-05-09T02:11:14.146Z,0
2016-05-09T02:12:14.118Z,0
2016-05-09T02:13:14.105Z,0
2016-05-09T02:14:14.437Z,0
2016-05-09T02:15:14.095Z,0
2016-05-09T02:16:14.067Z,0
2016-05-09T02:17:13.944Z,0
2016-05-09T02:18:14.072Z,0
2016-05-09T02:19:14.042Z,0
2016-05-09T02:20:13.858Z,0
2016-05-09T02:21:13.877Z,0
2016-05-09T02:22:13.676Z,0
2016-05-09T02:23:13.991Z,0
2016-05-09T02:24:13.985Z,0
2016-05-09T02:25:13.971Z,0
2016-05-09T02:26:13.804Z,0
2016-05-09T02:27:13.932Z,0
2016-05-09T02:28:13.934Z,0
2016-05-09T02:29:14.389Z,0
2016-05-09T02:30:13.798Z,0
2016-05-09T02:31:13.910Z,0
2016-05-09T02:32:13.898Z,0
2016-05-09T02:33:13.869Z,0
2016-05-09T02:34:13.715Z,0
2016-05-09T02:35:13.859Z,0
2016-05-09T02:36:13.673Z,0
2016-05-09T02:37:14.036Z,0
2016-05-09T02:38:13.820Z,0
2016-05-09T02:39:13.807Z,0
2016-05-09T02:40:13.794Z,0
2016-05-09T02:41:13.781Z,0
2016-05-09T02:42:13.784Z,0
2016-05-09T02:43:13.755Z,0
2016-05-09T02:44:13.898Z,0
2016-05-09T02:45:13.745Z,0
2016-05-09T02:46:13.716Z,0
2016-05-09T02:47:13.719Z,0
2016-05-09T02:48:13.691Z,0
2016-05-09T02:49:13.694Z,0
2016-05-09T02:50:13.600Z,0
2016-05-09T02:51:13.667Z,0
2016-05-09T02:52:13.652Z,0
2016-05-09T02:53:13.638Z,0
2016-05-09T02:54:13.469Z,0
2016-05-09T02:55:13.596Z,0
2016-05-09T02:56:13.460Z,0
2016-05-09T02:57:13.587Z,0
2016-05-09T02:58:13.590Z,0
2016-05-09T02:59:13.514Z,0
2016-05-09T03:00:13.408Z,0
2016-05-09T03:01:13.535Z,0
2016-05-09T03:02:13.523Z,0
2016-05-09T03:03:13.509Z,0
2016-05-09T03:04:13.512Z,0
2016-05-09T03:05:13.514Z,0
2016-05-09T03:06:13.579Z,0
2016-05-09T03:07:13.379Z,0
2016-05-09T03:08:13.492Z,0
2016-05-09T03:09:13.462Z,0
2016-05-09T03:10:13.435Z,0
2016-05-09T03:11:13.265Z,0
2016-05-09T03:12:13.424Z,0
2016-05-09T03:13:13.395Z,4
2016-05-09T03:14:13.711Z,4
2016-05-09T03:15:13.386Z,0
2016-05-09T03:16:13.372Z,0
2016-05-09T03:17:13.188Z,4
2016-05-09T03:18:13.191Z,4
2016-05-09T03:19:13.318Z,4
2016-05-09T03:20:13.149Z,4
2016-05-09T03:21:13.152Z,4
2016-05-09T03:22:12.983Z,8
2016-05-09T03:23:13.125Z,8
2016-05-09T03:24:12.941Z,8
2016-05-09T03:25:13.255Z,8
2016-05-09T03:26:12.930Z,12
2016-05-09T03:27:13.090Z,12
2016-05-09T03:28:13.233Z,12
2016-05-09T03:29:13.221Z,16
2016-05-09T03:30:13.191Z,20
2016-05-09T03:31:13.022Z,20
2016-05-09T03:32:13.196Z,24
2016-05-09T03:33:13.152Z,32
2016-05-09T03:34:13.217Z,32
2016-05-09T03:35:13.143Z,36
2016-05-09T03:36:13.129Z,44
2016-05-09T03:37:13.101Z,48
2016-05-09T03:38:13.103Z,56
2016-05-09T03:39:13.091Z,60
2016-05-09T03:40:13.078Z,68
2016-05-09T03:41:12.909Z,76
2016-05-09T03:42:13.051Z,84
2016-05-09T03:43:13.054Z,96
2016-05-09T03:44:12.900Z,100
2016-05-09T03:45:13.029Z,116
2016-05-09T03:46:13.000Z,128
2016-05-09T03:47:12.987Z,136
2016-05-09T03:48:12.974Z,148
2016-05-09T03:49:22.777Z,164
2016-05-09T03:50:14.261Z,176
2016-05-09T03:51:12.794Z,188
2016-05-09T03:52:12.922Z,204
2016-05-09T03:53:12.910Z,220
2016-05-09T03:54:12.896Z,236
2016-05-09T03:55:12.915Z,256
2016-05-09T03:56:12.871Z,272
2016-05-09T03:57:12.874Z,288
2016-05-09T03:58:12.891Z,308
2016-05-09T03:59:12.847Z,324
2016-05-09T04:00:12.849Z,344
2016-05-09T04:01:12.838Z,364
2016-05-09T04:02:12.824Z,384
2016-05-09T04:03:12.796Z,404
2016-05-09T04:04:12.782Z,424
2016-05-09T04:05:12.770Z,444
2016-05-09T04:06:12.600Z,464
2016-05-09T04:07:12.744Z,488
2016-05-09T04:08:12.746Z,504
2016-05-09T04:09:12.562Z,528
2016-05-09T04:10:12.548Z,544
2016-05-09T04:11:12.708Z,564
2016-05-09T04:12:12.538Z,584
2016-05-09T04:13:12.682Z,608
2016-05-09T04:14:12.795Z,624
2016-05-09T04:15:12.656Z,644
2016-05-09T04:16:12.658Z,664
2016-05-09T04:17:12.630Z,684
2016-05-09T04:18:12.461Z,708
2016-05-09T04:19:12.589Z,728
2016-05-09T04:20:12.576Z,744
2016-05-09T04:21:12.578Z,764
2016-05-09T04:22:12.565Z,780
2016-05-09T04:23:12.552Z,804
2016-05-09T04:24:12.399Z,820
2016-05-09T04:25:12.527Z,836
2016-05-09T04:26:12.514Z,856
2016-05-09T04:27:12.501Z,876
2016-05-09T04:28:12.488Z,892
2016-05-09T04:29:12.475Z,908
2016-05-09T04:30:12.462Z,924
2016-05-09T04:31:12.449Z,944
2016-05-09T04:32:12.436Z,956
2016-05-09T04:33:12.423Z,976
2016-05-09T04:34:12.254Z,992
2016-05-09T04:35:12.398Z,1012
2016-05-09T04:36:12.384Z,1028
2016-05-09T04:37:12.262Z,1040
2016-05-09T04:38:12.390Z,1056
2016-05-09T04:39:12.190Z,1072
2016-05-09T04:40:12.176Z,1084
2016-05-09T04:41:12.210Z,1100
2016-05-09T04:42:12.337Z,1116
2016-05-09T04:43:12.309Z,1128
2016-05-09T04:44:12.625Z,1144
2016-05-09T04:45:12.143Z,1160
2016-05-09T04:46:12.271Z,1172
2016-05-09T04:47:12.242Z,1184
2016-05-09T04:48:12.244Z,1200
2016-05-09T04:49:12.231Z,1212
2016-05-09T04:50:12.220Z,1228
2016-05-09T04:51:12.049Z,1240
2016-05-09T04:52:12.194Z,1252
2016-05-09T04:53:12.289Z,1264
2016-05-09T04:54:12.027Z,1276
2016-05-09T04:55:12.169Z,1288
2016-05-09T04:56:12.142Z,1304
2016-05-09T04:57:12.144Z,1316
2016-05-09T04:58:12.131Z,1324
2016-05-09T04:59:12.665Z,1340
2016-05-09T05:00:12.090Z,1352
2016-05-09T05:01:11.935Z,1360
2016-05-09T05:02:11.924Z,1372
2016-05-09T05:03:12.066Z,1384
2016-05-09T05:04:12.054Z,1396
2016-05-09T05:05:12.040Z,1404
2016-05-09T05:06:12.027Z,1416
2016-05-09T05:07:11.999Z,1428
2016-05-09T05:08:12.002Z,1440
2016-05-09T05:09:11.989Z,1448
2016-05-09T05:10:11.851Z,1460
2016-05-09T05:11:12.182Z,1472
2016-05-09T05:12:11.950Z,1484
2016-05-09T05:13:11.953Z,1492
2016-05-09T05:14:12.440Z,1504
2016-05-09T05:15:11.958Z,1512
2016-05-09T05:16:11.758Z,1524
2016-05-09T05:17:11.900Z,1532
2016-05-09T05:18:11.889Z,1544
2016-05-09T05:19:11.891Z,1548
2016-05-09T05:20:11.862Z,1560
2016-05-09T05:21:11.552Z,1572
2016-05-09T05:22:11.524Z,1576
2016-05-09T05:23:11.682Z,1588
2016-05-09T05:24:11.811Z,1596
2016-05-09T05:25:11.704Z,1608
2016-05-09T05:26:11.816Z,1612
2016-05-09T05:27:11.787Z,1624
2016-05-09T05:28:11.618Z,1636
2016-05-09T05:29:13.152Z,1640
2016-05-09T05:30:11.592Z,1652
2016-05-09T05:31:11.720Z,1660
2016-05-09T05:32:11.738Z,1672
2016-05-09T05:33:11.553Z,1680
2016-05-09T05:34:11.681Z,1684
2016-05-09T05:35:11.684Z,1696
2016-05-09T05:36:11.671Z,1700
2016-05-09T05:37:11.658Z,1708
2016-05-09T05:38:11.848Z,1720
2016-05-09T05:39:11.476Z,1728
2016-05-09T05:40:11.634Z,1728
2016-05-09T05:41:11.621Z,1732
2016-05-09T05:42:11.609Z,1740
2016-05-09T05:43:11.596Z,1748
2016-05-09T05:44:11.692Z,1756
2016-05-09T05:45:11.554Z,1764
2016-05-09T05:46:11.557Z,1772
2016-05-09T05:47:11.545Z,1776
2016-05-09T05:48:11.547Z,1788
2016-05-09T05:49:11.518Z,1796
2016-05-09T05:50:11.505Z,1804
2016-05-09T05:51:11.492Z,1808
2016-05-09T05:52:11.479Z,1820
2016-05-09T05:53:11.466Z,1828
2016-05-09T05:54:11.454Z,1832
2016-05-09T05:55:11.456Z,1840
2016-05-09T05:56:11.428Z,1844
2016-05-09T05:57:11.430Z,1852
2016-05-09T05:58:11.261Z,1860
2016-05-09T05:59:11.419Z,1864
2016-05-09T06:00:11.391Z,1876
2016-05-09T06:01:11.437Z,1880
2016-05-09T06:02:11.297Z,1888
2016-05-09T06:03:11.483Z,1896
2016-05-09T06:04:11.374Z,1908
2016-05-09T06:05:11.546Z,1916
2016-05-09T06:06:11.408Z,1928
2016-05-09T06:07:11.427Z,1940
2016-05-09T06:08:11.569Z,1948
2016-05-09T06:09:11.572Z,1952
2016-05-09T06:10:11.576Z,1960
2016-05-09T06:11:11.427Z,1972
2016-05-09T06:12:11.576Z,1976
2016-05-09T06:13:11.413Z,1988
2016-05-09T06:14:11.677Z,1996
2016-05-09T06:15:11.544Z,2004
2016-05-09T06:16:11.549Z,2020
2016-05-09T06:17:11.538Z,2020
2016-05-09T06:18:11.371Z,2032
2016-05-09T06:19:11.376Z,2036
2016-05-09T06:20:11.505Z,2040
2016-05-09T06:21:11.508Z,2052
2016-05-09T06:22:11.481Z,2056
2016-05-09T06:23:11.530Z,2056
2016-05-09T06:24:11.471Z,2068
2016-05-09T06:25:11.459Z,2076
2016-05-09T06:26:11.447Z,2068
2016-05-09T06:27:11.450Z,2088
2016-05-09T06:28:11.421Z,2100
2016-05-09T06:29:12.955Z,2108
2016-05-09T06:30:11.411Z,2116
2016-05-09T06:31:11.383Z,2120
2016-05-09T06:32:11.385Z,2120
2016-05-09T06:33:11.215Z,2120
2016-05-09T06:34:11.358Z,2152
2016-05-09T06:35:11.361Z,2164
2016-05-09T06:36:11.333Z,2176
2016-05-09T06:37:11.727Z,2176
2016-05-09T06:38:11.307Z,2188
2016-05-09T06:39:11.310Z,2200
2016-05-09T06:40:11.297Z,2204
2016-05-09T06:41:11.393Z,2216
2016-05-09T06:42:11.271Z,2228
2016-05-09T06:43:11.352Z,2232
2016-05-09T06:44:12.526Z,2244
2016-05-09T06:45:11.092Z,2256
2016-05-09T06:46:11.235Z,2260
2016-05-09T06:47:11.222Z,2268
2016-05-09T06:48:11.068Z,2272
2016-05-09T06:49:10.884Z,2292
2016-05-09T06:50:11.184Z,2296
2016-05-09T06:51:11.186Z,2300
2016-05-09T06:52:11.173Z,2308
2016-05-09T06:53:11.159Z,2324
2016-05-09T06:54:11.162Z,2324
2016-05-09T06:55:11.134Z,2340
2016-05-09T06:56:11.121Z,2348
2016-05-09T06:57:11.109Z,2360
2016-05-09T06:58:11.111Z,2356
2016-05-09T06:59:11.004Z,2372
2016-05-09T07:00:11.086Z,2384
2016-05-09T07:01:11.072Z,2400
2016-05-09T07:02:11.075Z,2416
2016-05-09T07:03:11.077Z,2424
2016-05-09T07:04:11.049Z,2444
2016-05-09T07:05:11.036Z,2456
2016-05-09T07:06:11.038Z,2472
2016-05-09T07:07:11.026Z,2480
2016-05-09T07:08:11.013Z,2488
2016-05-09T07:09:11.000Z,2496
2016-05-09T07:10:11.002Z,2512
2016-05-09T07:11:10.974Z,2524
2016-05-09T07:12:10.961Z,2532
2016-05-09T07:13:10.964Z,2556
2016-05-09T07:14:10.795Z,2600
2016-05-09T07:15:10.938Z,2636
2016-05-09T07:16:10.925Z,2668
2016-05-09T07:17:10.912Z,2696
2016-05-09T07:18:10.759Z,2716
2016-05-09T07:19:10.746Z,2752
2016-05-09T07:20:10.748Z,2768
2016-05-09T07:21:10.720Z,2780
2016-05-09T07:22:10.723Z,2804
2016-05-09T07:23:10.865Z,2836
2016-05-09T07:24:10.696Z,2860
2016-05-09T07:25:10.856Z,2892
2016-05-09T07:26:10.827Z,11456
2016-05-09T07:27:10.829Z,32896
2016-05-09T07:28:10.817Z,40832
2016-05-09T07:29:10.820Z,43424
2016-05-09T07:30:10.651Z,45472
2016-05-09T07:31:10.637Z,45568
2016-05-09T07:32:10.796Z,42432
2016-05-09T07:33:10.784Z,39392
2016-05-09T07:34:10.770Z,39424
2016-05-09T07:35:10.758Z,41568
2016-05-09T07:36:10.761Z,43456
2016-05-09T07:37:10.606Z,45600
2016-05-09T07:38:10.766Z,47328
2016-05-09T07:39:10.753Z,47136
2016-05-09T07:40:10.739Z,44032
2016-05-09T07:41:10.571Z,40416
2016-05-09T07:42:10.745Z,39776
2016-05-09T07:43:10.560Z,41760
2016-05-09T07:44:10.719Z,44448
2016-05-09T07:45:10.722Z,46560
2016-05-09T07:46:10.724Z,48768
2016-05-09T07:47:10.587Z,48896
2016-05-09T07:48:10.761Z,46912
2016-05-09T07:49:10.560Z,45568
2016-05-09T07:50:10.705Z,45504
2016-05-09T07:51:10.696Z,47392
2016-05-09T07:52:10.559Z,50144
2016-05-09T07:53:10.562Z,47584
2016-05-09T07:54:10.720Z,42848
2016-05-09T07:55:10.685Z,42848
2016-05-09T07:56:10.563Z,44416
2016-05-09T07:57:10.550Z,46720
2016-05-09T07:58:10.537Z,48736
2016-05-09T07:59:10.697Z,44096
2016-05-09T08:00:10.699Z,42976
2016-05-09T08:01:10.670Z,45856
2016-05-09T08:02:10.657Z,45824
2016-05-09T08:03:10.660Z,44096
2016-05-09T08:04:10.662Z,44480
2016-05-09T08:05:15.134Z,45952
2016-05-09T08:06:31.389Z,48480
2016-05-09T08:07:26.092Z,49312
2016-05-09T08:08:22.923Z,55328
2016-05-09T08:09:25.082Z,57280
2016-05-09T08:10:17.804Z,54592
2016-05-09T08:11:12.916Z,50592
2016-05-09T08:12:22.215Z,46496
2016-05-09T08:13:10.328Z,45248
2016-05-09T08:14:11.001Z,45408
2016-05-09T08:15:10.489Z,45632
2016-05-09T08:16:10.632Z,45856
2016-05-09T08:17:10.479Z,47360
2016-05-09T08:18:10.654Z,47776
2016-05-09T08:19:10.640Z,47456
2016-05-09T08:20:10.627Z,48768
2016-05-09T08:21:10.631Z,50752
2016-05-09T08:22:10.508Z,52416
2016-05-09T08:23:10.666Z,52224
2016-05-09T08:24:10.639Z,51264
2016-05-09T08:25:10.626Z,50080
2016-05-09T08:26:10.628Z,48864
2016-05-09T08:27:10.631Z,48032
2016-05-09T08:28:10.633Z,48384
2016-05-09T08:29:11.808Z,49536
2016-05-09T08:30:10.514Z,53984
2016-05-09T08:31:10.641Z,58464
2016-05-09T08:32:10.644Z,60896
2016-05-09T08:33:10.632Z,60640
2016-05-09T08:34:10.649Z,58496
2016-05-09T08:35:10.480Z,55488
2016-05-09T08:36:10.358Z,52416
2016-05-09T08:37:11.064Z,51008
2016-05-09T08:38:10.660Z,52960
2016-05-09T08:39:10.647Z,58656
2016-05-09T08:40:10.650Z,65920
2016-05-09T08:41:10.654Z,72192
2016-05-09T08:42:10.499Z,74176
2016-05-09T08:43:10.659Z,71424
2016-05-09T08:44:10.520Z,65952
2016-05-09T08:45:10.664Z,57056
2016-05-09T08:46:10.667Z,50592
2016-05-09T08:47:10.669Z,49952
2016-05-09T08:48:10.672Z,55136
2016-05-09T08:49:10.675Z,50816
2016-05-09T08:50:10.677Z,70752
2016-05-09T08:51:10.383Z,39936
2016-05-09T08:52:10.526Z,76192
2016-05-09T08:53:10.686Z,51648
2016-05-09T08:54:10.531Z,66496
2016-05-09T08:55:10.691Z,33664
2016-05-09T08:56:10.537Z,47008
2016-05-09T08:57:10.696Z,35744
2016-05-09T08:58:10.699Z,40096
2016-05-09T08:59:10.545Z,59872
2016-05-09T09:00:10.547Z,65728
2016-05-09T09:01:10.707Z,70560
2016-05-09T09:02:10.694Z,39488
2016-05-09T09:03:10.383Z,22208
2016-05-09T09:04:10.715Z,29024
2016-05-09T09:05:10.546Z,0
2016-05-09T09:06:10.704Z,53216
2016-05-09T09:07:10.723Z,50560
2016-05-09T09:08:10.709Z,40000
2016-05-09T09:09:10.713Z,26656
2016-05-09T09:10:10.543Z,14676
2016-05-09T09:11:10.701Z,49952
2016-05-09T09:12:10.704Z,19520
2016-05-09T09:13:10.552Z,25056
2016-05-09T09:14:10.554Z,20640
2016-05-09T09:15:10.713Z,12624
2016-05-09T09:16:10.701Z,16448
2016-05-09T09:17:10.718Z,14912
2016-05-09T09:18:10.706Z,11992
2016-05-09T09:19:10.552Z,57344
2016-05-09T09:20:10.554Z,32576
2016-05-09T09:21:10.714Z,36160
2016-05-09T09:22:10.700Z,51264
2016-05-09T09:23:10.703Z,53664
2016-05-09T09:24:10.706Z,50784
2016-05-09T09:25:10.709Z,34976
2016-05-09T09:26:10.695Z,35104
2016-05-09T09:27:10.698Z,19392
2016-05-09T09:28:10.545Z,29056
2016-05-09T09:29:11.141Z,22624
2016-05-09T09:30:10.691Z,28736
2016-05-09T09:31:10.693Z,36576
2016-05-09T09:32:10.712Z,34976
2016-05-09T09:33:10.683Z,40800
2016-05-09T09:34:10.546Z,44352
2016-05-09T09:35:10.549Z,48768
2016-05-09T09:36:10.691Z,46240
2016-05-09T09:37:10.679Z,19392
2016-05-09T09:38:10.682Z,19136
2016-05-09T09:39:10.684Z,17984
2016-05-09T09:40:10.530Z,16992
2016-05-09T09:41:10.533Z,36704
2016-05-09T09:42:10.676Z,17120
2016-05-09T09:43:10.679Z,44224
2016-05-09T09:44:11.009Z,53376
2016-05-09T09:45:10.529Z,41152
2016-05-09T09:46:10.703Z,22048
2016-05-09T09:47:10.673Z,37024
2016-05-09T09:48:10.677Z,30624
2016-05-09T09:49:10.695Z,14112
2016-05-09T09:50:10.682Z,21280
2016-05-09T09:51:10.669Z,50720
2016-05-09T09:52:10.531Z,56448
2016-05-09T09:53:10.518Z,40640
2016-05-09T09:54:10.662Z,26944
2016-05-09T09:55:10.696Z,28064
2016-05-09T09:56:10.667Z,53920
2016-05-09T09:57:10.654Z,34080
2016-05-09T09:58:10.672Z,27008
2016-05-09T09:59:10.597Z,12660
2016-05-09T10:00:10.677Z,12240
2016-05-09T10:01:10.649Z,10612
2016-05-09T10:02:10.497Z,10088
2016-05-09T10:03:10.358Z,12808
2016-05-09T10:04:10.502Z,24128
2016-05-09T10:05:10.661Z,12256
2016-05-09T10:06:10.663Z,19776
2016-05-09T10:07:10.493Z,7784
2016-05-09T10:08:10.637Z,13860
2016-05-09T10:09:10.640Z,26016
2016-05-09T10:10:10.657Z,42688
2016-05-09T10:11:10.488Z,0
2016-05-09T10:12:10.632Z,17036
2016-05-09T10:13:10.682Z,31808
2016-05-09T10:14:10.935Z,3552
2016-05-09T10:15:10.640Z,48448
2016-05-09T10:16:10.690Z,47104
2016-05-09T10:17:10.474Z,32576
2016-05-09T10:18:10.476Z,71712
2016-05-09T10:19:10.479Z,58144
2016-05-09T10:20:10.498Z,91072
2016-05-09T10:21:10.640Z,78368
2016-05-09T10:22:10.487Z,81600
2016-05-09T10:23:10.318Z,74688
2016-05-09T10:24:10.633Z,71264
2016-05-09T10:25:10.620Z,74112
2016-05-09T10:26:10.639Z,80160
2016-05-09T10:27:10.641Z,88160
2016-05-09T10:28:10.691Z,96448
2016-05-09T10:29:10.490Z,103456
2016-05-09T10:30:10.493Z,106016
2016-05-09T10:31:10.495Z,104032
2016-05-09T10:32:10.639Z,100096
2016-05-09T10:33:10.485Z,93728
2016-05-09T10:34:10.645Z,87264
2016-05-09T10:35:10.647Z,83072
2016-05-09T10:36:10.666Z,82560
2016-05-09T10:37:10.715Z,84832
2016-05-09T10:38:10.671Z,86560
2016-05-09T10:39:10.673Z,89952
2016-05-09T10:40:10.660Z,92160
2016-05-09T10:41:10.679Z,92128
2016-05-09T10:42:10.697Z,92704
2016-05-09T10:43:10.513Z,92800
2016-05-09T10:44:10.405Z,95008
2016-05-09T10:45:10.690Z,97120
2016-05-09T10:46:10.692Z,98592
2016-05-09T10:47:10.695Z,101120
2016-05-09T10:48:10.698Z,102048
2016-05-09T10:49:10.701Z,102048
2016-05-09T10:50:10.546Z,102528
2016-05-09T10:51:10.706Z,100832
2016-05-09T10:52:10.708Z,101472
2016-05-09T10:53:10.554Z,102656
2016-05-09T10:54:10.573Z,104640
2016-05-09T10:55:10.732Z,104736
2016-05-09T10:56:10.751Z,102912
2016-05-09T10:57:10.737Z,99200
2016-05-09T10:58:10.740Z,93088
2016-05-09T10:59:10.992Z,88736
2016-05-09T11:00:10.652Z,86400
2016-05-09T11:01:10.764Z,87936
2016-05-09T11:02:10.610Z,91488
2016-05-09T11:03:10.769Z,94336
2016-05-09T11:04:10.756Z,98208
2016-05-09T11:05:10.774Z,101888
2016-05-09T11:06:10.777Z,103808
2016-05-09T11:07:10.780Z,99008
2016-05-09T11:08:10.783Z,94496
2016-05-09T11:09:10.816Z,89920
2016-05-09T11:10:10.804Z,86208
2016-05-09T11:11:10.806Z,82016
2016-05-09T11:12:10.809Z,80736
2016-05-09T11:13:10.813Z,82656
2016-05-09T11:14:11.955Z,85088
2016-05-09T11:15:10.677Z,86272
2016-05-09T11:16:10.820Z,89568
2016-05-09T11:17:10.853Z,91488
2016-05-09T11:18:10.840Z,90720
2016-05-09T11:19:10.843Z,88512
2016-05-09T11:20:10.846Z,88064
2016-05-09T11:21:10.879Z,89504
2016-05-09T11:22:10.867Z,90432
2016-05-09T11:23:10.714Z,90688
2016-05-09T11:24:10.857Z,91680
2016-05-09T11:25:10.876Z,93024
2016-05-09T11:26:10.893Z,91744
2016-05-09T11:27:10.896Z,88992
2016-05-09T11:28:10.899Z,87584
2016-05-09T11:29:11.026Z,86976
2016-05-09T11:30:10.903Z,85056
2016-05-09T11:31:10.907Z,84064
2016-05-09T11:32:10.909Z,84128
2016-05-09T11:33:10.912Z,85504
2016-05-09T11:34:10.649Z,86048
2016-05-09T11:35:10.933Z,87616
2016-05-09T11:36:10.920Z,90976
2016-05-09T11:37:10.923Z,94304
2016-05-09T11:38:10.942Z,95072
2016-05-09T11:39:10.788Z,93632
2016-05-09T11:40:10.947Z,91296
2016-05-09T11:41:10.950Z,89312
2016-05-09T11:42:10.952Z,89152
2016-05-09T11:43:10.955Z,88000
2016-05-09T11:44:11.005Z,87776
2016-05-09T11:45:10.960Z,88224
2016-05-09T11:46:10.963Z,87488
2016-05-09T11:47:10.996Z,86496
2016-05-09T11:48:10.844Z,87904
2016-05-09T11:49:10.830Z,87936
2016-05-09T11:50:11.004Z,88384
2016-05-09T11:51:10.835Z,89696
2016-05-09T11:52:11.010Z,92480
2016-05-09T11:53:11.013Z,93152
2016-05-09T11:54:11.016Z,91904
2016-05-09T11:55:11.034Z,89568
2016-05-09T11:56:10.864Z,86592
2016-05-09T11:57:11.039Z,82976
2016-05-09T11:58:10.902Z,79168
2016-05-09T11:59:11.232Z,76448
2016-05-09T12:00:11.047Z,76480
2016-05-09T12:01:10.737Z,75712
2016-05-09T12:02:11.069Z,72448
2016-05-09T12:03:11.087Z,71584
2016-05-09T12:04:10.918Z,75008
2016-05-09T12:05:11.092Z,78048
2016-05-09T12:06:11.079Z,80896
2016-05-09T12:07:11.082Z,83456
2016-05-09T12:08:11.101Z,85696
2016-05-09T12:09:11.103Z,83968
2016-05-09T12:10:10.949Z,79872
2016-05-09T12:11:11.108Z,75968
2016-05-09T12:12:11.110Z,73888
2016-05-09T12:13:11.114Z,73536
2016-05-09T12:14:12.788Z,76640
2016-05-09T12:15:10.963Z,80960
2016-05-09T12:16:11.121Z,86720
2016-05-09T12:17:11.140Z,92928
2016-05-09T12:18:11.143Z,98208
2016-05-09T12:19:10.990Z,99104
2016-05-09T12:20:11.007Z,96832
2016-05-09T12:21:10.995Z,92288
2016-05-09T12:22:11.185Z,86080
2016-05-09T12:23:11.016Z,80672
2016-05-09T12:24:11.018Z,75776
2016-05-09T12:25:11.020Z,75808
2016-05-09T12:26:11.039Z,80672
2016-05-09T12:27:11.182Z,86560
2016-05-09T12:28:11.201Z,90848
2016-05-09T12:29:12.454Z,94944
2016-05-09T12:30:11.050Z,97376
2016-05-09T12:31:11.053Z,97280
2016-05-09T12:32:11.056Z,94656
2016-05-09T12:33:11.231Z,93728
2016-05-09T12:34:11.217Z,94272
2016-05-09T12:35:11.236Z,91008
2016-05-09T12:36:10.769Z,88128
2016-05-09T12:37:11.084Z,85024
2016-05-09T12:38:11.259Z,84320
2016-05-09T12:39:11.089Z,85792
2016-05-09T12:40:11.264Z,88192
2016-05-09T12:41:11.252Z,92768
2016-05-09T12:42:11.114Z,96800
2016-05-09T12:43:11.272Z,97536
2016-05-09T12:44:12.040Z,96160
2016-05-09T12:45:11.122Z,92288
2016-05-09T12:46:11.125Z,91104
2016-05-09T12:47:11.143Z,89632
2016-05-09T12:48:11.302Z,90976
2016-05-09T12:49:13.585Z,90880
2016-05-09T12:50:11.308Z,91296
2016-05-09T12:51:11.716Z,92224
2016-05-09T12:52:11.516Z,93248
2016-05-09T12:53:11.331Z,88640
2016-05-09T12:54:11.192Z,82752
2016-05-09T12:55:11.180Z,76672
2016-05-09T12:56:11.418Z,71840
2016-05-09T12:57:11.342Z,71072
2016-05-09T12:58:11.360Z,68032
2016-05-09T12:59:11.862Z,68928
2016-05-09T13:00:11.365Z,74400
2016-05-09T13:01:11.368Z,79168
2016-05-09T13:02:11.387Z,85120
2016-05-09T13:03:11.373Z,87776
2016-05-09T13:04:11.595Z,87008
2016-05-09T13:05:11.441Z,87648
2016-05-09T13:06:11.741Z,84288
2016-05-09T13:07:11.415Z,84320
2016-05-09T13:08:11.403Z,79808
2016-05-09T13:09:11.280Z,74976
2016-05-09T13:10:11.455Z,72896
2016-05-09T13:11:11.425Z,79040
2016-05-09T13:12:11.272Z,87360
2016-05-09T13:13:11.447Z,94496
2016-05-09T13:14:12.466Z,102720
2016-05-09T13:15:11.437Z,101920
2016-05-09T13:16:11.314Z,104704
2016-05-09T13:17:11.458Z,96000
2016-05-09T13:18:11.319Z,93440
2016-05-09T13:19:11.152Z,85952
2016-05-09T13:20:11.482Z,78624
2016-05-09T13:21:11.485Z,77376
2016-05-09T13:22:11.502Z,78784
2016-05-09T13:23:11.349Z,83072
2016-05-09T13:24:11.351Z,87456
2016-05-09T13:25:11.511Z,90176
2016-05-09T13:26:11.357Z,91904
2016-05-09T13:27:11.516Z,89024
2016-05-09T13:28:11.550Z,88576
2016-05-09T13:29:11.553Z,87072